sensor_id;sensor_type;location;lat;lon;timestamp;P1;durP1;ratioP1;P2;durP2;ratioP2
48805;SDS011;34625;47.176;27.548;2023-07-31T00:00:41;4.18;;;1.10;;
48805;SDS011;34625;47.176;27.548;2023-07-31T00:03:07;2.13;;;1.10;;
48805;SDS011;34625;47.176;27.548;2023-07-31T00:05:33;1.35;;;1.20;;
48805;SDS011;34625;47.176;27.548;2023-07-31T00:08:00;3.25;;;1.25;;
48805;SDS011;34625;47.176;27.548;2023-07-31T00:10:26;1.33;;;1.17;;
48805;SDS011;34625;47.176;27.548;2023-07-31T00:12:52;2.13;;;0.82;;
48805;SDS011;34625;47.176;27.548;2023-07-31T00:15:18;1.50;;;1.30;;
48805;SDS011;34625;47.176;27.548;2023-07-31T00:17:44;1.15;;;1.08;;
48805;SDS011;34625;47.176;27.548;2023-07-31T00:20:10;1.48;;;1.05;;
48805;SDS011;34625;47.176;27.548;2023-07-31T00:22:40;1.45;;;1.20;;
48805;SDS011;34625;47.176;27.548;2023-07-31T00:25:06;1.45;;;1.00;;
48805;SDS011;34625;47.176;27.548;2023-07-31T00:27:32;4.05;;;1.10;;
48805;SDS011;34625;47.176;27.548;2023-07-31T00:29:58;1.95;;;1.05;;
48805;SDS011;34625;47.176;27.548;2023-07-31T00:32:25;1.40;;;1.30;;
48805;SDS011;34625;47.176;27.548;2023-07-31T00:34:52;1.50;;;1.08;;
48805;SDS011;34625;47.176;27.548;2023-07-31T00:37:18;2.88;;;1.20;;
48805;SDS011;34625;47.176;27.548;2023-07-31T00:39:44;4.38;;;1.27;;
48805;SDS011;34625;47.176;27.548;2023-07-31T00:42:10;1.45;;;1.10;;
48805;SDS011;34625;47.176;27.548;2023-07-31T00:44:36;1.02;;;0.95;;
48805;SDS011;34625;47.176;27.548;2023-07-31T00:47:02;1.80;;;1.50;;
48805;SDS011;34625;47.176;27.548;2023-07-31T00:49:29;2.15;;;1.27;;
48805;SDS011;34625;47.176;27.548;2023-07-31T00:51:55;0.98;;;0.90;;
48805;SDS011;34625;47.176;27.548;2023-07-31T00:54:24;4.40;;;1.23;;
48805;SDS011;34625;47.176;27.548;2023-07-31T00:56:51;0.88;;;0.88;;
48805;SDS011;34625;47.176;27.548;2023-07-31T00:59:21;1.77;;;1.20;;
48805;SDS011;34625;47.176;27.548;2023-07-31T01:01:47;1.70;;;1.17;;
48805;SDS011;34625;47.176;27.548;2023-07-31T01:04:14;2.45;;;1.10;;
48805;SDS011;34625;47.176;27.548;2023-07-31T01:12:04;1.38;;;1.02;;
48805;SDS011;34625;47.176;27.548;2023-07-31T01:14:33;2.13;;;1.40;;
48805;SDS011;34625;47.176;27.548;2023-07-31T01:17:00;1.55;;;1.30;;
48805;SDS011;34625;47.176;27.548;2023-07-31T01:19:26;1.25;;;1.15;;
48805;SDS011;34625;47.176;27.548;2023-07-31T01:24:30;2.15;;;1.25;;
48805;SDS011;34625;47.176;27.548;2023-07-31T01:27:09;2.73;;;1.40;;
48805;SDS011;34625;47.176;27.548;2023-07-31T01:29:49;1.20;;;1.10;;
48805;SDS011;34625;47.176;27.548;2023-07-31T01:32:21;1.40;;;1.30;;
48805;SDS011;34625;47.176;27.548;2023-07-31T01:34:50;1.20;;;1.10;;
48805;SDS011;34625;47.176;27.548;2023-07-31T01:37:19;1.45;;;1.33;;
48805;SDS011;34625;47.176;27.548;2023-07-31T01:39:45;2.92;;;1.15;;
48805;SDS011;34625;47.176;27.548;2023-07-31T01:42:11;1.30;;;1.20;;
48805;SDS011;34625;47.176;27.548;2023-07-31T01:44:37;1.55;;;1.33;;
48805;SDS011;34625;47.176;27.548;2023-07-31T01:47:04;2.42;;;1.30;;
48805;SDS011;34625;47.176;27.548;2023-07-31T01:49:32;2.03;;;1.40;;
48805;SDS011;34625;47.176;27.548;2023-07-31T01:51:58;1.35;;;1.25;;
48805;SDS011;34625;47.176;27.548;2023-07-31T01:54:24;1.40;;;1.27;;
48805;SDS011;34625;47.176;27.548;2023-07-31T01:56:50;1.17;;;1.08;;
48805;SDS011;34625;47.176;27.548;2023-07-31T01:59:16;2.50;;;1.40;;
48805;SDS011;34625;47.176;27.548;2023-07-31T02:01:42;3.95;;;1.80;;
48805;SDS011;34625;47.176;27.548;2023-07-31T02:04:09;2.45;;;1.73;;
48805;SDS011;34625;47.176;27.548;2023-07-31T02:06:36;3.75;;;1.58;;
48805;SDS011;34625;47.176;27.548;2023-07-31T02:09:12;2.03;;;1.48;;
48805;SDS011;34625;47.176;27.548;2023-07-31T02:11:38;1.40;;;1.25;;
48805;SDS011;34625;47.176;27.548;2023-07-31T02:14:05;1.42;;;1.33;;
48805;SDS011;34625;47.176;27.548;2023-07-31T02:16:31;3.63;;;1.67;;
48805;SDS011;34625;47.176;27.548;2023-07-31T02:18:57;1.40;;;1.30;;
48805;SDS011;34625;47.176;27.548;2023-07-31T02:21:25;2.90;;;1.30;;
48805;SDS011;34625;47.176;27.548;2023-07-31T02:23:51;1.45;;;1.25;;
48805;SDS011;34625;47.176;27.548;2023-07-31T02:26:18;1.50;;;1.20;;
48805;SDS011;34625;47.176;27.548;2023-07-31T02:28:44;1.80;;;1.60;;
48805;SDS011;34625;47.176;27.548;2023-07-31T02:31:11;1.80;;;1.30;;
48805;SDS011;34625;47.176;27.548;2023-07-31T02:33:40;2.50;;;1.15;;
48805;SDS011;34625;47.176;27.548;2023-07-31T02:36:06;1.20;;;1.00;;
48805;SDS011;34625;47.176;27.548;2023-07-31T02:38:32;1.98;;;1.23;;
48805;SDS011;34625;47.176;27.548;2023-07-31T02:40:59;1.63;;;1.23;;
48805;SDS011;34625;47.176;27.548;2023-07-31T02:43:26;2.30;;;1.27;;
48805;SDS011;34625;47.176;27.548;2023-07-31T02:45:52;2.10;;;1.20;;
48805;SDS011;34625;47.176;27.548;2023-07-31T02:48:19;1.80;;;1.60;;
48805;SDS011;34625;47.176;27.548;2023-07-31T02:50:46;1.65;;;1.42;;
48805;SDS011;34625;47.176;27.548;2023-07-31T02:53:13;1.63;;;1.52;;
48805;SDS011;34625;47.176;27.548;2023-07-31T02:55:40;1.33;;;1.23;;
48805;SDS011;34625;47.176;27.548;2023-07-31T02:58:06;2.90;;;1.45;;
48805;SDS011;34625;47.176;27.548;2023-07-31T03:00:32;2.80;;;1.45;;
48805;SDS011;34625;47.176;27.548;2023-07-31T03:02:59;1.00;;;1.00;;
48805;SDS011;34625;47.176;27.548;2023-07-31T03:05:27;1.92;;;1.52;;
48805;SDS011;34625;47.176;27.548;2023-07-31T03:07:53;2.80;;;1.30;;
48805;SDS011;34625;47.176;27.548;2023-07-31T03:10:19;1.52;;;1.30;;
48805;SDS011;34625;47.176;27.548;2023-07-31T03:12:48;1.73;;;1.55;;
48805;SDS011;34625;47.176;27.548;2023-07-31T03:15:14;2.00;;;1.42;;
48805;SDS011;34625;47.176;27.548;2023-07-31T03:17:40;1.48;;;1.20;;
48805;SDS011;34625;47.176;27.548;2023-07-31T03:20:07;1.50;;;1.40;;
48805;SDS011;34625;47.176;27.548;2023-07-31T03:22:33;1.63;;;1.38;;
48805;SDS011;34625;47.176;27.548;2023-07-31T03:25:01;4.18;;;1.42;;
48805;SDS011;34625;47.176;27.548;2023-07-31T03:27:27;3.38;;;1.38;;
48805;SDS011;34625;47.176;27.548;2023-07-31T03:29:54;1.30;;;1.20;;
48805;SDS011;34625;47.176;27.548;2023-07-31T03:32:20;1.40;;;1.30;;
48805;SDS011;34625;47.176;27.548;2023-07-31T03:34:46;2.50;;;1.27;;
48805;SDS011;34625;47.176;27.548;2023-07-31T03:37:12;2.83;;;1.52;;
48805;SDS011;34625;47.176;27.548;2023-07-31T03:39:38;2.28;;;1.60;;
48805;SDS011;34625;47.176;27.548;2023-07-31T03:42:04;2.25;;;1.30;;
48805;SDS011;34625;47.176;27.548;2023-07-31T03:44:31;1.50;;;1.40;;
48805;SDS011;34625;47.176;27.548;2023-07-31T03:46:57;1.40;;;1.25;;
48805;SDS011;34625;47.176;27.548;2023-07-31T03:49:23;1.50;;;1.25;;
48805;SDS011;34625;47.176;27.548;2023-07-31T03:51:50;2.88;;;1.65;;
48805;SDS011;34625;47.176;27.548;2023-07-31T03:54:16;1.70;;;1.60;;
48805;SDS011;34625;47.176;27.548;2023-07-31T03:56:42;2.28;;;1.25;;
48805;SDS011;34625;47.176;27.548;2023-07-31T03:59:08;1.17;;;1.10;;
48805;SDS011;34625;47.176;27.548;2023-07-31T04:01:34;2.00;;;1.20;;
48805;SDS011;34625;47.176;27.548;2023-07-31T04:04:01;1.05;;;1.05;;
48805;SDS011;34625;47.176;27.548;2023-07-31T04:06:27;0.90;;;0.90;;
48805;SDS011;34625;47.176;27.548;2023-07-31T04:08:53;4.75;;;1.45;;
48805;SDS011;34625;47.176;27.548;2023-07-31T04:11:19;1.35;;;1.23;;
48805;SDS011;34625;47.176;27.548;2023-07-31T04:13:45;1.92;;;1.27;;
48805;SDS011;34625;47.176;27.548;2023-07-31T04:16:11;2.33;;;1.10;;
48805;SDS011;34625;47.176;27.548;2023-07-31T04:18:37;1.52;;;1.20;;
48805;SDS011;34625;47.176;27.548;2023-07-31T04:21:04;2.42;;;1.10;;
48805;SDS011;34625;47.176;27.548;2023-07-31T04:23:30;2.28;;;1.27;;
48805;SDS011;34625;47.176;27.548;2023-07-31T04:25:56;1.20;;;1.10;;
48805;SDS011;34625;47.176;27.548;2023-07-31T04:28:22;1.27;;;1.17;;
48805;SDS011;34625;47.176;27.548;2023-07-31T04:30:48;1.20;;;1.05;;
48805;SDS011;34625;47.176;27.548;2023-07-31T04:33:15;1.55;;;1.15;;
48805;SDS011;34625;47.176;27.548;2023-07-31T04:35:41;5.25;;;1.55;;
48805;SDS011;34625;47.176;27.548;2023-07-31T04:38:13;2.70;;;1.30;;
48805;SDS011;34625;47.176;27.548;2023-07-31T04:40:39;8.23;;;1.80;;
48805;SDS011;34625;47.176;27.548;2023-07-31T04:43:05;2.30;;;1.10;;
48805;SDS011;34625;47.176;27.548;2023-07-31T04:45:31;3.13;;;1.30;;
48805;SDS011;34625;47.176;27.548;2023-07-31T04:47:57;2.67;;;1.30;;
48805;SDS011;34625;47.176;27.548;2023-07-31T04:50:23;3.20;;;1.33;;
48805;SDS011;34625;47.176;27.548;2023-07-31T04:52:50;1.73;;;1.55;;
48805;SDS011;34625;47.176;27.548;2023-07-31T04:55:16;3.47;;;1.33;;
48805;SDS011;34625;47.176;27.548;2023-07-31T04:57:42;2.00;;;1.27;;
48805;SDS011;34625;47.176;27.548;2023-07-31T05:00:08;6.30;;;1.55;;
48805;SDS011;34625;47.176;27.548;2023-07-31T05:02:35;3.88;;;1.20;;
48805;SDS011;34625;47.176;27.548;2023-07-31T05:05:01;4.72;;;1.42;;
48805;SDS011;34625;47.176;27.548;2023-07-31T05:07:29;4.63;;;1.65;;
48805;SDS011;34625;47.176;27.548;2023-07-31T05:09:55;4.68;;;1.63;;
48805;SDS011;34625;47.176;27.548;2023-07-31T05:12:21;8.13;;;1.73;;
48805;SDS011;34625;47.176;27.548;2023-07-31T05:14:47;2.40;;;1.55;;
48805;SDS011;34625;47.176;27.548;2023-07-31T05:17:14;8.45;;;1.65;;
48805;SDS011;34625;47.176;27.548;2023-07-31T05:19:40;6.43;;;1.50;;
48805;SDS011;34625;47.176;27.548;2023-07-31T05:22:06;3.90;;;1.70;;
48805;SDS011;34625;47.176;27.548;2023-07-31T05:24:33;1.85;;;1.23;;
48805;SDS011;34625;47.176;27.548;2023-07-31T05:26:59;2.55;;;1.50;;
48805;SDS011;34625;47.176;27.548;2023-07-31T05:29:26;2.22;;;1.52;;
48805;SDS011;34625;47.176;27.548;2023-07-31T05:31:52;2.10;;;1.40;;
48805;SDS011;34625;47.176;27.548;2023-07-31T05:34:18;4.18;;;1.92;;
48805;SDS011;34625;47.176;27.548;2023-07-31T05:36:44;3.97;;;1.65;;
48805;SDS011;34625;47.176;27.548;2023-07-31T05:39:10;2.55;;;1.65;;
48805;SDS011;34625;47.176;27.548;2023-07-31T05:41:36;1.60;;;1.30;;
48805;SDS011;34625;47.176;27.548;2023-07-31T05:44:02;1.95;;;1.35;;
48805;SDS011;34625;47.176;27.548;2023-07-31T05:46:28;1.73;;;1.52;;
48805;SDS011;34625;47.176;27.548;2023-07-31T05:49:13;1.65;;;1.50;;
48805;SDS011;34625;47.176;27.548;2023-07-31T05:51:40;6.07;;;1.77;;
48805;SDS011;34625;47.176;27.548;2023-07-31T05:54:06;1.80;;;1.70;;
48805;SDS011;34625;47.176;27.548;2023-07-31T05:56:32;2.13;;;1.48;;
48805;SDS011;34625;47.176;27.548;2023-07-31T05:58:59;0.80;;;0.80;;
48805;SDS011;34625;47.176;27.548;2023-07-31T06:01:25;1.10;;;0.80;;
48805;SDS011;34625;47.176;27.548;2023-07-31T06:03:52;1.17;;;1.08;;
48805;SDS011;34625;47.176;27.548;2023-07-31T06:06:18;3.03;;;1.15;;
48805;SDS011;34625;47.176;27.548;2023-07-31T06:08:44;1.52;;;1.30;;
48805;SDS011;34625;47.176;27.548;2023-07-31T06:11:11;1.25;;;1.15;;
48805;SDS011;34625;47.176;27.548;2023-07-31T06:13:37;3.65;;;1.45;;
48805;SDS011;34625;47.176;27.548;2023-07-31T06:16:04;3.85;;;1.65;;
48805;SDS011;34625;47.176;27.548;2023-07-31T06:18:32;3.13;;;2.83;;
48805;SDS011;34625;47.176;27.548;2023-07-31T06:20:58;6.00;;;4.57;;
48805;SDS011;34625;47.176;27.548;2023-07-31T06:23:24;8.07;;;5.15;;
48805;SDS011;34625;47.176;27.548;2023-07-31T06:25:50;14.38;;;8.20;;
48805;SDS011;34625;47.176;27.548;2023-07-31T06:28:29;5.35;;;2.22;;
48805;SDS011;34625;47.176;27.548;2023-07-31T06:30:57;3.58;;;2.05;;
48805;SDS011;34625;47.176;27.548;2023-07-31T06:33:23;3.40;;;1.60;;
48805;SDS011;34625;47.176;27.548;2023-07-31T06:35:50;2.38;;;1.73;;
48805;SDS011;34625;47.176;27.548;2023-07-31T06:38:19;2.63;;;1.60;;
48805;SDS011;34625;47.176;27.548;2023-07-31T06:40:47;1.45;;;1.25;;
48805;SDS011;34625;47.176;27.548;2023-07-31T06:43:14;1.42;;;1.33;;
48805;SDS011;34625;47.176;27.548;2023-07-31T06:45:40;2.28;;;1.40;;
48805;SDS011;34625;47.176;27.548;2023-07-31T06:48:07;1.65;;;1.38;;
48805;SDS011;34625;47.176;27.548;2023-07-31T06:50:33;3.42;;;1.48;;
48805;SDS011;34625;47.176;27.548;2023-07-31T06:52:59;1.48;;;1.20;;
48805;SDS011;34625;47.176;27.548;2023-07-31T06:55:25;1.88;;;1.58;;
48805;SDS011;34625;47.176;27.548;2023-07-31T06:57:53;1.77;;;1.40;;
48805;SDS011;34625;47.176;27.548;2023-07-31T07:00:21;1.17;;;0.93;;
48805;SDS011;34625;47.176;27.548;2023-07-31T07:02:48;1.42;;;1.10;;
48805;SDS011;34625;47.176;27.548;2023-07-31T07:05:15;1.52;;;1.20;;
48805;SDS011;34625;47.176;27.548;2023-07-31T07:07:43;0.98;;;0.98;;
48805;SDS011;34625;47.176;27.548;2023-07-31T07:10:09;1.90;;;1.13;;
48805;SDS011;34625;47.176;27.548;2023-07-31T07:12:36;2.05;;;1.20;;
48805;SDS011;34625;47.176;27.548;2023-07-31T07:15:02;2.28;;;1.50;;
48805;SDS011;34625;47.176;27.548;2023-07-31T07:17:31;1.27;;;1.00;;
48805;SDS011;34625;47.176;27.548;2023-07-31T07:19:57;1.15;;;0.95;;
48805;SDS011;34625;47.176;27.548;2023-07-31T07:22:23;1.98;;;0.80;;
48805;SDS011;34625;47.176;27.548;2023-07-31T07:24:50;20.15;;;4.95;;
48805;SDS011;34625;47.176;27.548;2023-07-31T07:27:16;4.50;;;1.55;;
48805;SDS011;34625;47.176;27.548;2023-07-31T07:29:43;4.50;;;1.52;;
48805;SDS011;34625;47.176;27.548;2023-07-31T07:32:09;1.60;;;1.50;;
48805;SDS011;34625;47.176;27.548;2023-07-31T07:34:35;1.75;;;1.50;;
48805;SDS011;34625;47.176;27.548;2023-07-31T07:37:01;2.95;;;2.25;;
48805;SDS011;34625;47.176;27.548;2023-07-31T07:39:27;2.67;;;1.95;;
48805;SDS011;34625;47.176;27.548;2023-07-31T07:41:54;2.25;;;1.92;;
48805;SDS011;34625;47.176;27.548;2023-07-31T07:44:20;1.50;;;1.40;;
48805;SDS011;34625;47.176;27.548;2023-07-31T07:46:46;2.35;;;2.15;;
48805;SDS011;34625;47.176;27.548;2023-07-31T07:49:12;2.15;;;1.80;;
48805;SDS011;34625;47.176;27.548;2023-07-31T07:51:38;3.05;;;1.92;;
48805;SDS011;34625;47.176;27.548;2023-07-31T07:54:04;2.17;;;1.90;;
48805;SDS011;34625;47.176;27.548;2023-07-31T07:56:30;2.90;;;1.85;;
48805;SDS011;34625;47.176;27.548;2023-07-31T07:58:56;1.58;;;1.33;;
48805;SDS011;34625;47.176;27.548;2023-07-31T08:01:22;2.58;;;1.77;;
48805;SDS011;34625;47.176;27.548;2023-07-31T08:03:49;1.70;;;1.60;;
48805;SDS011;34625;47.176;27.548;2023-07-31T08:06:15;2.10;;;1.73;;
48805;SDS011;34625;47.176;27.548;2023-07-31T08:08:42;1.63;;;1.30;;
48805;SDS011;34625;47.176;27.548;2023-07-31T08:11:08;4.78;;;1.88;;
48805;SDS011;34625;47.176;27.548;2023-07-31T08:13:34;1.77;;;1.67;;
48805;SDS011;34625;47.176;27.548;2023-07-31T08:16:02;2.70;;;2.00;;
48805;SDS011;34625;47.176;27.548;2023-07-31T08:18:30;2.22;;;1.60;;
48805;SDS011;34625;47.176;27.548;2023-07-31T08:20:56;1.55;;;1.42;;
48805;SDS011;34625;47.176;27.548;2023-07-31T08:23:22;2.33;;;1.60;;
48805;SDS011;34625;47.176;27.548;2023-07-31T08:25:48;1.23;;;1.00;;
48805;SDS011;34625;47.176;27.548;2023-07-31T08:28:16;3.88;;;1.50;;
48805;SDS011;34625;47.176;27.548;2023-07-31T08:30:42;1.70;;;1.60;;
48805;SDS011;34625;47.176;27.548;2023-07-31T08:33:08;3.83;;;1.73;;
48805;SDS011;34625;47.176;27.548;2023-07-31T08:35:34;1.13;;;1.02;;
48805;SDS011;34625;47.176;27.548;2023-07-31T08:38:01;2.30;;;1.17;;
48805;SDS011;34625;47.176;27.548;2023-07-31T08:40:28;1.98;;;1.75;;
48805;SDS011;34625;47.176;27.548;2023-07-31T08:42:55;2.00;;;1.45;;
48805;SDS011;34625;47.176;27.548;2023-07-31T08:45:36;2.72;;;1.55;;
48805;SDS011;34625;47.176;27.548;2023-07-31T08:48:04;1.55;;;1.20;;
48805;SDS011;34625;47.176;27.548;2023-07-31T08:50:30;2.10;;;1.50;;
48805;SDS011;34625;47.176;27.548;2023-07-31T08:52:56;1.73;;;1.45;;
48805;SDS011;34625;47.176;27.548;2023-07-31T08:55:22;2.47;;;1.20;;
48805;SDS011;34625;47.176;27.548;2023-07-31T08:57:52;1.77;;;1.42;;
48805;SDS011;34625;47.176;27.548;2023-07-31T09:00:21;1.88;;;1.48;;
48805;SDS011;34625;47.176;27.548;2023-07-31T09:05:44;1.35;;;1.17;;
48805;SDS011;34625;47.176;27.548;2023-07-31T09:08:12;4.95;;;1.33;;
48805;SDS011;34625;47.176;27.548;2023-07-31T09:10:41;1.80;;;1.52;;
48805;SDS011;34625;47.176;27.548;2023-07-31T09:13:08;2.38;;;1.60;;
48805;SDS011;34625;47.176;27.548;2023-07-31T09:15:36;1.65;;;1.50;;
48805;SDS011;34625;47.176;27.548;2023-07-31T09:18:03;1.70;;;1.58;;
48805;SDS011;34625;47.176;27.548;2023-07-31T09:20:30;5.10;;;1.58;;
48805;SDS011;34625;47.176;27.548;2023-07-31T09:23:21;1.95;;;1.55;;
48805;SDS011;34625;47.176;27.548;2023-07-31T09:25:47;3.10;;;1.70;;
48805;SDS011;34625;47.176;27.548;2023-07-31T09:28:13;2.10;;;1.70;;
48805;SDS011;34625;47.176;27.548;2023-07-31T09:30:59;1.70;;;1.60;;
48805;SDS011;34625;47.176;27.548;2023-07-31T09:33:28;3.75;;;1.90;;
48805;SDS011;34625;47.176;27.548;2023-07-31T09:35:58;3.90;;;2.63;;
48805;SDS011;34625;47.176;27.548;2023-07-31T09:38:25;3.58;;;2.20;;
48805;SDS011;34625;47.176;27.548;2023-07-31T09:40:51;3.30;;;1.95;;
48805;SDS011;34625;47.176;27.548;2023-07-31T09:43:20;2.55;;;2.00;;
48805;SDS011;34625;47.176;27.548;2023-07-31T09:45:47;2.42;;;1.75;;
48805;SDS011;34625;47.176;27.548;2023-07-31T09:48:19;2.40;;;1.92;;
48805;SDS011;34625;47.176;27.548;2023-07-31T09:50:46;2.65;;;1.77;;
48805;SDS011;34625;47.176;27.548;2023-07-31T09:53:16;1.90;;;1.70;;
48805;SDS011;34625;47.176;27.548;2023-07-31T09:55:42;2.60;;;2.00;;
48805;SDS011;34625;47.176;27.548;2023-07-31T09:58:10;2.10;;;1.90;;
48805;SDS011;34625;47.176;27.548;2023-07-31T10:00:37;2.63;;;2.15;;
48805;SDS011;34625;47.176;27.548;2023-07-31T10:03:05;2.65;;;1.92;;
48805;SDS011;34625;47.176;27.548;2023-07-31T10:05:36;2.83;;;2.00;;
48805;SDS011;34625;47.176;27.548;2023-07-31T10:08:06;2.35;;;2.13;;
48805;SDS011;34625;47.176;27.548;2023-07-31T10:10:38;2.20;;;1.77;;
48805;SDS011;34625;47.176;27.548;2023-07-31T10:15:34;4.53;;;2.20;;
48805;SDS011;34625;47.176;27.548;2023-07-31T10:18:02;2.10;;;1.90;;
48805;SDS011;34625;47.176;27.548;2023-07-31T10:20:31;2.63;;;1.80;;
48805;SDS011;34625;47.176;27.548;2023-07-31T10:22:57;2.30;;;1.85;;
48805;SDS011;34625;47.176;27.548;2023-07-31T10:25:26;4.35;;;1.80;;
48805;SDS011;34625;47.176;27.548;2023-07-31T10:27:53;3.17;;;1.80;;
48805;SDS011;34625;47.176;27.548;2023-07-31T10:30:21;2.65;;;2.17;;
48805;SDS011;34625;47.176;27.548;2023-07-31T10:35:30;2.22;;;1.90;;
48805;SDS011;34625;47.176;27.548;2023-07-31T10:38:03;3.38;;;2.00;;
48805;SDS011;34625;47.176;27.548;2023-07-31T10:40:37;3.35;;;2.33;;
48805;SDS011;34625;47.176;27.548;2023-07-31T10:43:03;4.60;;;1.73;;
48805;SDS011;34625;47.176;27.548;2023-07-31T10:45:41;2.50;;;1.90;;
48805;SDS011;34625;47.176;27.548;2023-07-31T10:48:17;1.77;;;1.60;;
48805;SDS011;34625;47.176;27.548;2023-07-31T10:50:47;2.60;;;1.90;;
48805;SDS011;34625;47.176;27.548;2023-07-31T10:53:28;7.13;;;1.98;;
48805;SDS011;34625;47.176;27.548;2023-07-31T10:55:59;2.95;;;1.67;;
48805;SDS011;34625;47.176;27.548;2023-07-31T10:58:26;2.22;;;2.03;;
48805;SDS011;34625;47.176;27.548;2023-07-31T11:00:55;3.25;;;1.90;;
48805;SDS011;34625;47.176;27.548;2023-07-31T11:03:29;2.80;;;2.00;;
48805;SDS011;34625;47.176;27.548;2023-07-31T11:06:11;2.28;;;1.83;;
48805;SDS011;34625;47.176;27.548;2023-07-31T11:08:41;2.70;;;2.13;;
48805;SDS011;34625;47.176;27.548;2023-07-31T11:11:13;2.17;;;1.98;;
48805;SDS011;34625;47.176;27.548;2023-07-31T11:13:42;2.55;;;2.20;;
48805;SDS011;34625;47.176;27.548;2023-07-31T11:16:11;3.05;;;2.20;;
48805;SDS011;34625;47.176;27.548;2023-07-31T11:18:44;2.70;;;2.00;;
48805;SDS011;34625;47.176;27.548;2023-07-31T11:21:17;1.85;;;1.75;;
48805;SDS011;34625;47.176;27.548;2023-07-31T11:23:48;4.15;;;1.83;;
48805;SDS011;34625;47.176;27.548;2023-07-31T11:26:16;2.78;;;2.03;;
48805;SDS011;34625;47.176;27.548;2023-07-31T11:28:42;4.28;;;2.35;;
48805;SDS011;34625;47.176;27.548;2023-07-31T11:31:11;5.57;;;2.13;;
48805;SDS011;34625;47.176;27.548;2023-07-31T11:33:37;3.38;;;2.30;;
48805;SDS011;34625;47.176;27.548;2023-07-31T11:36:04;3.55;;;2.65;;
48805;SDS011;34625;47.176;27.548;2023-07-31T11:38:31;5.90;;;2.70;;
48805;SDS011;34625;47.176;27.548;2023-07-31T11:40:59;2.63;;;2.42;;
48805;SDS011;34625;47.176;27.548;2023-07-31T11:43:28;2.83;;;2.10;;
48805;SDS011;34625;47.176;27.548;2023-07-31T11:45:58;3.15;;;2.55;;
48805;SDS011;34625;47.176;27.548;2023-07-31T11:48:26;2.72;;;2.53;;
48805;SDS011;34625;47.176;27.548;2023-07-31T11:51:00;2.83;;;2.60;;
48805;SDS011;34625;47.176;27.548;2023-07-31T11:56:02;3.17;;;2.42;;
48805;SDS011;34625;47.176;27.548;2023-07-31T11:58:32;3.03;;;2.45;;
48805;SDS011;34625;47.176;27.548;2023-07-31T12:01:01;4.55;;;2.50;;
48805;SDS011;34625;47.176;27.548;2023-07-31T12:03:28;3.30;;;2.90;;
48805;SDS011;34625;47.176;27.548;2023-07-31T12:05:55;3.00;;;2.05;;
48805;SDS011;34625;47.176;27.548;2023-07-31T12:08:22;3.00;;;2.30;;
48805;SDS011;34625;47.176;27.548;2023-07-31T12:11:15;2.63;;;2.38;;
48805;SDS011;34625;47.176;27.548;2023-07-31T12:13:43;2.85;;;2.42;;
48805;SDS011;34625;47.176;27.548;2023-07-31T12:16:09;3.03;;;2.10;;
48805;SDS011;34625;47.176;27.548;2023-07-31T12:18:36;2.33;;;2.10;;
48805;SDS011;34625;47.176;27.548;2023-07-31T12:21:07;3.33;;;2.50;;
48805;SDS011;34625;47.176;27.548;2023-07-31T12:23:37;4.18;;;2.30;;
48805;SDS011;34625;47.176;27.548;2023-07-31T12:26:04;3.33;;;2.35;;
48805;SDS011;34625;47.176;27.548;2023-07-31T12:28:30;2.42;;;2.22;;
48805;SDS011;34625;47.176;27.548;2023-07-31T12:31:33;3.63;;;2.38;;
48805;SDS011;34625;47.176;27.548;2023-07-31T12:33:59;4.68;;;2.90;;
48805;SDS011;34625;47.176;27.548;2023-07-31T12:36:26;2.80;;;2.60;;
48805;SDS011;34625;47.176;27.548;2023-07-31T12:38:54;4.25;;;2.47;;
48805;SDS011;34625;47.176;27.548;2023-07-31T12:41:22;2.65;;;2.38;;
48805;SDS011;34625;47.176;27.548;2023-07-31T12:43:48;3.80;;;2.90;;
48805;SDS011;34625;47.176;27.548;2023-07-31T12:46:14;4.63;;;2.92;;
48805;SDS011;34625;47.176;27.548;2023-07-31T12:48:41;2.90;;;2.50;;
48805;SDS011;34625;47.176;27.548;2023-07-31T12:51:07;4.05;;;2.95;;
48805;SDS011;34625;47.176;27.548;2023-07-31T12:53:33;2.90;;;2.60;;
48805;SDS011;34625;47.176;27.548;2023-07-31T12:56:00;2.53;;;2.28;;
48805;SDS011;34625;47.176;27.548;2023-07-31T12:58:29;3.90;;;2.70;;
48805;SDS011;34625;47.176;27.548;2023-07-31T13:00:55;3.83;;;3.00;;
48805;SDS011;34625;47.176;27.548;2023-07-31T13:03:21;3.97;;;3.28;;
48805;SDS011;34625;47.176;27.548;2023-07-31T13:05:48;4.80;;;3.33;;
48805;SDS011;34625;47.176;27.548;2023-07-31T13:08:14;3.50;;;3.20;;
48805;SDS011;34625;47.176;27.548;2023-07-31T13:10:41;5.30;;;3.42;;
48805;SDS011;34625;47.176;27.548;2023-07-31T13:13:07;3.13;;;2.83;;
48805;SDS011;34625;47.176;27.548;2023-07-31T13:15:34;2.72;;;2.53;;
48805;SDS011;34625;47.176;27.548;2023-07-31T13:18:00;3.30;;;3.00;;
48805;SDS011;34625;47.176;27.548;2023-07-31T13:20:26;3.20;;;2.90;;
48805;SDS011;34625;47.176;27.548;2023-07-31T13:22:53;5.03;;;3.28;;
48805;SDS011;34625;47.176;27.548;2023-07-31T13:25:19;3.03;;;2.83;;
48805;SDS011;34625;47.176;27.548;2023-07-31T13:27:45;3.08;;;2.83;;
48805;SDS011;34625;47.176;27.548;2023-07-31T13:30:11;3.97;;;3.17;;
48805;SDS011;34625;47.176;27.548;2023-07-31T13:32:37;2.65;;;2.45;;
48805;SDS011;34625;47.176;27.548;2023-07-31T13:35:07;3.58;;;3.28;;
48805;SDS011;34625;47.176;27.548;2023-07-31T13:37:33;3.50;;;3.20;;
48805;SDS011;34625;47.176;27.548;2023-07-31T13:40:00;4.45;;;3.30;;
48805;SDS011;34625;47.176;27.548;2023-07-31T13:42:26;3.17;;;2.88;;
48805;SDS011;34625;47.176;27.548;2023-07-31T13:44:54;3.22;;;2.60;;
48805;SDS011;34625;47.176;27.548;2023-07-31T13:47:34;6.65;;;2.55;;
48805;SDS011;34625;47.176;27.548;2023-07-31T13:50:02;2.80;;;2.53;;
48805;SDS011;34625;47.176;27.548;2023-07-31T13:52:29;3.22;;;2.78;;
48805;SDS011;34625;47.176;27.548;2023-07-31T13:54:55;6.05;;;2.78;;
48805;SDS011;34625;47.176;27.548;2023-07-31T13:57:21;4.25;;;3.33;;
48805;SDS011;34625;47.176;27.548;2023-07-31T13:59:48;2.70;;;2.50;;
48805;SDS011;34625;47.176;27.548;2023-07-31T14:02:14;2.90;;;2.65;;
48805;SDS011;34625;47.176;27.548;2023-07-31T14:04:41;3.28;;;2.97;;
48805;SDS011;34625;47.176;27.548;2023-07-31T14:07:07;3.78;;;3.38;;
48805;SDS011;34625;47.176;27.548;2023-07-31T14:09:33;3.50;;;2.75;;
48805;SDS011;34625;47.176;27.548;2023-07-31T14:11:59;4.15;;;3.22;;
48805;SDS011;34625;47.176;27.548;2023-07-31T14:14:25;3.35;;;2.60;;
48805;SDS011;34625;47.176;27.548;2023-07-31T14:16:52;3.08;;;2.67;;
48805;SDS011;34625;47.176;27.548;2023-07-31T14:19:18;3.08;;;2.78;;
48805;SDS011;34625;47.176;27.548;2023-07-31T14:21:44;3.40;;;3.10;;
48805;SDS011;34625;47.176;27.548;2023-07-31T14:24:10;4.10;;;2.97;;
48805;SDS011;34625;47.176;27.548;2023-07-31T14:26:37;3.30;;;3.00;;
48805;SDS011;34625;47.176;27.548;2023-07-31T14:29:03;3.50;;;3.20;;
48805;SDS011;34625;47.176;27.548;2023-07-31T14:31:29;3.50;;;3.20;;
48805;SDS011;34625;47.176;27.548;2023-07-31T14:33:55;3.53;;;2.95;;
48805;SDS011;34625;47.176;27.548;2023-07-31T14:36:22;4.53;;;2.90;;
48805;SDS011;34625;47.176;27.548;2023-07-31T14:38:48;5.07;;;3.45;;
48805;SDS011;34625;47.176;27.548;2023-07-31T14:41:17;3.22;;;2.97;;
48805;SDS011;34625;47.176;27.548;2023-07-31T14:43:43;4.60;;;4.03;;
48805;SDS011;34625;47.176;27.548;2023-07-31T14:46:09;4.60;;;4.15;;
48805;SDS011;34625;47.176;27.548;2023-07-31T14:48:35;4.95;;;3.40;;
48805;SDS011;34625;47.176;27.548;2023-07-31T14:51:01;4.70;;;3.05;;
48805;SDS011;34625;47.176;27.548;2023-07-31T14:53:27;3.78;;;2.83;;